Time;durP1;ratioP1;P1;durP2;ratioP2;P2;SDS_P1;SDS_P2;PMS_P1;PMS_P2;Temp;Humidity;BMP_temperature;BMP_pressure;BME280_temperature;BME280_humidity;BME280_pressure;Samples;Min_cycle;Max_cycle;Signal;HPM_P1;HPM_P2
2022/05/02 00:01:43;;;;;;;10.68;7.28;;;;;;;9.46;68.04;93560.28;5051426;28;20074;-37
2022/05/02 00:04:09;;;;;;;8.50;6.28;;;;;;;9.46;67.96;93570.53;5051714;28;20017;-38
2022/05/02 00:06:34;;;;;;;7.97;5.75;;;;;;;9.40;68.10;93567.19;5051360;28;20025;-38
2022/05/02 00:09:00;;;;;;;18.20;12.52;;;;;;;9.44;68.05;93570.34;5051621;28;20012;-37
2022/05/02 00:11:25;;;;;;;12.93;8.45;;;;;;;9.46;68.11;93574.06;5051441;28;20024;-39
2022/05/02 00:13:51;;;;;;;12.10;9.07;;;;;;;9.30;68.47;93566.16;5050731;28;20524;-39
2022/05/02 00:16:16;;;;;;;15.40;9.95;;;;;;;9.37;68.03;93571.00;5051444;28;20036;-38
2022/05/02 00:18:42;;;;;;;14.10;9.55;;;;;;;9.40;68.18;93567.19;5051437;28;20448;-39
2022/05/02 00:21:07;;;;;;;13.88;8.80;;;;;;;9.40;68.13;93570.66;5051403;28;20024;-39
2022/05/02 00:23:32;;;;;;;11.93;8.73;;;;;;;9.35;68.61;93568.81;5051317;28;20556;-38
2022/05/02 00:25:58;;;;;;;15.20;8.60;;;;;;;9.18;69.29;93566.44;5051233;28;20032;-38
2022/05/02 00:28:23;;;;;;;15.52;9.60;;;;;;;9.05;69.75;93574.03;5051275;28;20398;-38
2022/05/02 00:30:49;;;;;;;13.60;11.23;;;;;;;8.80;70.27;93562.56;5050918;28;20410;-38
2022/05/02 00:33:15;;;;;;;7.25;6.10;;;;;;;8.71;70.77;93563.00;5051082;28;20052;-39
2022/05/02 00:35:40;;;;;;;7.68;6.00;;;;;;;8.72;70.91;93564.50;5051136;28;20028;-38
2022/05/02 00:38:06;;;;;;;7.00;5.13;;;;;;;8.71;71.23;93568.53;5050927;28;20098;-38
2022/05/02 00:40:32;;;;;;;6.10;5.40;;;;;;;8.61;71.90;93569.50;5050784;28;20032;-38
2022/05/02 00:42:57;;;;;;;7.30;4.70;;;;;;;8.61;72.18;93566.75;5050349;28;20099;-39
2022/05/02 00:45:23;;;;;;;7.60;6.13;;;;;;;8.51;72.51;93571.94;5050958;28;20522;-39
2022/05/02 00:47:53;;;;;;;9.80;6.43;;;;;;;8.43;72.45;93567.63;5051021;28;20494;-39
2022/05/02 00:50:39;;;;;;;8.32;6.32;;;;;;;8.44;72.12;93564.38;5050457;28;20107;-39
2022/05/02 00:53:09;;;;;;;7.80;5.75;;;;;;;8.41;72.11;93565.41;5050494;28;20025;-39
2022/05/02 00:55:35;;;;;;;8.30;6.93;;;;;;;8.33;72.33;93567.34;5050759;28;20037;-39
2022/05/02 00:58:01;;;;;;;17.95;12.82;;;;;;;8.46;71.64;93564.56;5050330;28;20028;-39
2022/05/02 01:00:28;;;;;;;19.10;12.38;;;;;;;8.49;71.36;93565.53;5050680;28;20025;-39
2022/05/02 01:02:54;;;;;;;13.25;9.10;;;;;;;8.37;71.76;93565.00;5050671;28;20048;-38
2022/05/02 01:05:19;;;;;;;12.85;9.20;;;;;;;8.40;71.39;93556.41;5050593;28;20025;-38
2022/05/02 01:07:46;;;;;;;12.70;9.13;;;;;;;8.33;71.87;93561.84;5050275;28;20029;-39
2022/05/02 01:10:16;;;;;;;11.77;8.32;;;;;;;8.22;72.02;93551.03;5050576;28;20448;-38
2022/05/02 01:12:43;;;;;;;9.82;7.47;;;;;;;8.03;72.92;93544.91;5050104;28;20028;-38
2022/05/02 01:15:09;;;;;;;10.30;7.68;;;;;;;8.07;72.58;93545.34;5050181;28;20449;-39
2022/05/02 01:17:34;;;;;;;10.30;7.32;;;;;;;8.18;71.53;93545.13;5050451;28;20078;-36
2022/05/02 01:20:00;;;;;;;8.65;7.00;;;;;;;8.09;71.76;93548.28;5050484;28;20049;-38
2022/05/02 01:22:25;;;;;;;9.13;7.05;;;;;;;8.04;72.41;93540.88;5049524;28;20021;-38
2022/05/02 01:24:51;;;;;;;8.15;6.72;;;;;;;8.10;72.50;93536.03;5050196;28;20037;-38
2022/05/02 01:27:16;;;;;;;8.25;6.93;;;;;;;8.01;72.49;93533.72;5050056;28;20482;-38
2022/05/02 01:29:44;;;;;;;11.20;8.13;;;;;;;7.92;73.24;93531.38;5050130;28;20097;-37
2022/05/02 01:32:16;;;;;;;7.47;6.47;;;;;;;7.84;72.79;93534.03;5049835;28;20532;-37
2022/05/02 01:34:42;;;;;;;8.95;6.32;;;;;;;7.69;72.71;93519.34;5050070;28;20017;-37
2022/05/02 01:37:09;;;;;;;8.85;6.68;;;;;;;7.53;72.86;93516.38;5049897;28;20028;-36
2022/05/02 01:39:34;;;;;;;7.35;6.53;;;;;;;7.53;71.99;93516.38;5050140;28;20020;-36
2022/05/02 01:42:00;;;;;;;9.18;6.70;;;;;;;7.37;72.81;93511.16;5049713;28;20016;-37
2022/05/02 01:44:26;;;;;;;7.78;6.80;;;;;;;7.50;72.71;93511.94;5049865;28;20048;-37
2022/05/02 01:46:53;;;;;;;7.45;6.40;;;;;;;7.41;72.70;93479.38;5049908;28;20025;-37
2022/05/02 01:49:19;;;;;;;8.05;6.28;;;;;;;7.62;72.69;93498.75;5049784;28;20025;-37
2022/05/02 01:51:44;;;;;;;12.75;7.93;;;;;;;7.60;72.53;93512.25;5050150;28;20035;-37
2022/05/02 01:54:10;;;;;;;15.38;8.85;;;;;;;7.41;73.54;93501.34;5050112;28;20028;-37
2022/05/02 01:56:35;;;;;;;12.70;7.88;;;;;;;7.20;73.24;93500.47;5050076;28;20029;-37
2022/05/02 01:59:02;;;;;;;8.38;5.60;;;;;;;7.10;74.57;93504.16;5049990;28;20199;-37
2022/05/02 02:01:27;;;;;;;9.35;6.95;;;;;;;7.08;74.15;93501.22;5049987;28;20048;-37
2022/05/02 02:03:53;;;;;;;10.27;7.03;;;;;;;7.03;74.13;93489.06;5050073;28;20457;-37
2022/05/02 02:06:18;;;;;;;9.00;7.38;;;;;;;6.96;74.13;93484.16;5034691;28;20013;-37
2022/05/02 02:08:45;;;;;;;9.43;6.28;;;;;;;6.84;73.81;93485.63;5030006;28;20434;-37
2022/05/02 02:11:10;;;;;;;10.77;6.75;;;;;;;6.79;73.69;93478.22;5029759;28;20487;-37
2022/05/02 02:13:37;;;;;;;13.40;8.27;;;;;;;6.71;73.86;93463.63;5030044;28;20021;-37
2022/05/02 02:16:06;;;;;;;10.25;7.22;;;;;;;6.59;74.09;93484.25;5030039;28;20426;-37
2022/05/02 02:18:32;;;;;;;9.35;7.68;;;;;;;6.70;73.85;93476.63;5029900;28;20030;-37
2022/05/02 02:20:57;;;;;;;14.25;9.23;;;;;;;6.57;73.92;93482.06;5029637;28;20549;-37
2022/05/02 02:23:23;;;;;;;13.88;9.13;;;;;;;6.39;74.39;93484.84;5036592;28;20059;-37
2022/05/02 02:25:49;;;;;;;14.68;9.55;;;;;;;6.39;74.77;93485.56;5049495;28;20455;-37
2022/05/02 02:28:15;;;;;;;13.68;9.20;;;;;;;6.37;74.40;93479.09;5049792;28;20024;-37
2022/05/02 02:30:41;;;;;;;13.90;8.40;;;;;;;6.46;74.76;93476.72;5049839;28;20074;-37
2022/05/02 02:33:07;;;;;;;9.88;8.80;;;;;;;6.31;75.03;93473.72;5049366;28;20016;-37
2022/05/02 02:35:32;;;;;;;20.55;10.43;;;;;;;6.28;75.42;93468.53;5050324;28;20063;-37
2022/05/02 02:37:58;;;;;;;13.38;8.82;;;;;;;6.26;75.95;93468.31;5052887;28;20029;-37
2022/05/02 02:40:24;;;;;;;11.48;9.10;;;;;;;6.19;74.70;93466.91;5053049;28;20025;-37
2022/05/02 02:42:49;;;;;;;9.82;8.60;;;;;;;5.93;74.35;93450.34;5052417;28;20033;-36
2022/05/02 02:45:15;;;;;;;12.50;8.85;;;;;;;5.62;74.73;93442.72;5053255;28;20587;-36
2022/05/02 02:47:41;;;;;;;13.35;8.57;;;;;;;5.82;75.32;93456.66;5053195;28;20512;-36
2022/05/02 02:50:07;;;;;;;13.43;10.15;;;;;;;5.85;74.19;93463.88;5052778;28;20426;-36
2022/05/02 02:52:33;;;;;;;16.02;9.70;;;;;;;5.62;75.73;93461.91;5053110;28;20061;-36
2022/05/02 02:54:58;;;;;;;11.07;8.27;;;;;;;5.74;74.67;93455.75;5052970;28;20025;-37
2022/05/02 02:57:23;;;;;;;13.88;9.60;;;;;;;5.68;75.73;93457.09;5053028;28;20620;-38
2022/05/02 02:59:49;;;;;;;10.63;7.93;;;;;;;5.78;75.19;93461.69;5052588;28;20552;-38
2022/05/02 03:02:15;;;;;;;9.27;7.70;;;;;;;5.79;74.68;93460.44;5052588;28;20029;-38
2022/05/02 03:07:26;;;;;;;13.90;10.15;;;;;;;5.82;74.63;93462.16;5052567;28;20043;-37
2022/05/02 03:09:51;;;;;;;19.40;9.85;;;;;;;5.85;73.93;93449.41;5052496;28;20486;-37
2022/05/02 03:12:18;;;;;;;11.73;9.27;;;;;;;5.89;74.09;93458.81;5052690;28;20025;-36
2022/05/02 03:14:43;;;;;;;14.02;9.95;;;;;;;5.62;75.32;93468.13;5052716;28;20029;-36
2022/05/02 03:17:09;;;;;;;14.23;12.02;;;;;;;5.57;74.82;93447.00;5052613;28;20025;-36
2022/05/02 03:19:35;;;;;;;13.80;10.65;;;;;;;5.83;74.11;93446.44;5052168;28;20067;-37
2022/05/02 03:22:00;;;;;;;11.35;7.80;;;;;;;5.74;73.39;93447.53;5052200;28;20028;-37
2022/05/02 03:24:26;;;;;;;11.90;9.00;;;;;;;5.44;74.57;93438.69;5052126;28;20036;-37
2022/05/02 03:26:51;;;;;;;14.45;10.13;;;;;;;5.53;73.85;93443.06;5052127;28;20028;-37
2022/05/02 03:29:17;;;;;;;16.10;9.45;;;;;;;5.24;75.21;93450.88;5052324;28;20024;-38
2022/05/02 03:31:42;;;;;;;11.70;8.95;;;;;;;5.45;74.90;93447.66;5052459;28;20390;-37
2022/05/02 03:34:07;;;;;;;13.23;9.35;;;;;;;5.45;75.17;93445.66;5052263;28;20040;-37
2022/05/02 03:36:34;;;;;;;12.35;8.98;;;;;;;5.46;74.80;93451.91;5052062;28;20024;-37
2022/05/02 03:39:00;;;;;;;14.32;9.13;;;;;;;5.36;74.65;93451.50;5051717;28;20120;-37
2022/05/02 03:41:26;;;;;;;9.77;8.25;;;;;;;5.40;74.45;93457.41;5051834;28;20060;-37
2022/05/02 03:43:51;;;;;;;11.25;8.50;;;;;;;5.54;73.71;93447.31;5051277;28;20427;-36
2022/05/02 03:46:17;;;;;;;15.68;10.45;;;;;;;5.58;72.82;93448.50;5051445;28;20036;-38
2022/05/02 03:48:44;;;;;;;13.15;9.35;;;;;;;5.53;73.45;93457.53;5050994;28;20013;-38
2022/05/02 03:51:10;;;;;;;12.40;9.65;;;;;;;5.56;73.79;93456.50;5050644;28;20029;-38
2022/05/02 03:53:35;;;;;;;21.45;11.23;;;;;;;5.57;74.50;93452.50;5051472;28;20033;-38
2022/05/02 03:56:01;;;;;;;16.70;12.43;;;;;;;5.71;74.38;93456.81;5051617;28;20043;-38
2022/05/02 03:58:26;;;;;;;19.67;13.20;;;;;;;5.79;73.84;93451.47;5051567;28;20029;-38
2022/05/02 04:00:52;;;;;;;17.35;11.98;;;;;;;5.65;74.18;93453.38;5051484;28;20036;-37
2022/05/02 04:03:17;;;;;;;18.75;11.85;;;;;;;5.63;74.36;93449.69;5051104;28;20044;-39
2022/05/02 04:05:42;;;;;;;15.00;10.30;;;;;;;5.67;74.37;93450.88;5031459;28;20025;-39
2022/05/02 04:08:08;;;;;;;15.48;10.32;;;;;;;5.70;74.94;93449.84;5031415;28;20024;-37
2022/05/02 04:10:33;;;;;;;15.88;10.73;;;;;;;5.98;73.77;93458.47;5031442;28;20029;-37
2022/05/02 04:12:59;;;;;;;12.65;9.20;;;;;;;5.97;73.53;93456.25;5031577;28;20017;-38
2022/05/02 04:15:24;;;;;;;13.95;8.77;;;;;;;6.15;72.96;93454.78;5031606;28;20029;-38
2022/05/02 04:17:50;;;;;;;14.15;10.38;;;;;;;6.27;72.54;93443.13;5031199;28;20025;-38
2022/05/02 04:20:15;;;;;;;16.70;13.38;;;;;;;6.28;71.88;93455.53;5039402;28;20032;-38
2022/05/02 04:22:41;;;;;;;20.20;14.63;;;;;;;6.49;72.00;93453.00;5050952;28;20032;-38
2022/05/02 04:25:07;;;;;;;22.40;14.35;;;;;;;6.82;71.52;93447.72;5051308;28;20025;-37
2022/05/02 04:27:33;;;;;;;18.60;14.90;;;;;;;7.31;70.27;93450.88;5051335;28;20124;-37
2022/05/02 04:29:58;;;;;;;11.05;8.35;;;;;;;7.84;68.98;93450.84;5050888;28;20487;-37
2022/05/02 04:32:24;;;;;;;121.82;57.30;;;;;;;8.35;67.13;93460.25;5050871;28;20025;-37
2022/05/02 04:34:49;;;;;;;140.48;69.50;;;;;;;8.51;66.04;93455.66;5050904;28;20037;-37
2022/05/02 04:37:14;;;;;;;72.68;36.45;;;;;;;8.48;66.05;93462.97;5050437;28;20028;-38
2022/05/02 04:39:40;;;;;;;19.48;13.27;;;;;;;8.58;66.06;93463.97;5048671;28;20410;-38
2022/05/02 04:42:06;;;;;;;17.85;12.15;;;;;;;8.47;66.29;93466.97;5042520;28;20506;-38
2022/05/02 04:44:34;;;;;;;23.77;17.83;;;;;;;8.92;65.46;93458.44;5049347;28;20514;-38
2022/05/02 04:47:00;;;;;;;33.95;24.77;;;;;;;9.45;64.30;93451.31;5050965;28;20410;-38
2022/05/02 04:49:25;;;;;;;30.40;22.52;;;;;;;9.66;63.61;93454.75;5050836;28;20029;-38
2022/05/02 04:51:50;;;;;;;23.35;13.02;;;;;;;9.68;64.00;93454.22;5050858;28;20028;-38
2022/05/02 04:54:16;;;;;;;12.90;9.38;;;;;;;9.81;63.28;93463.09;5050510;28;20424;-38
2022/05/02 04:56:41;;;;;;;10.27;8.45;;;;;;;9.71;63.71;93456.63;5047623;28;20079;-38
2022/05/02 04:59:07;;;;;;;11.82;8.20;;;;;;;9.79;63.93;93456.63;5050368;28;20502;-37
2022/05/02 05:01:32;;;;;;;9.85;8.55;;;;;;;9.91;63.57;93463.34;5050765;28;20409;-38
2022/05/02 05:03:58;;;;;;;8.82;6.90;;;;;;;10.13;63.60;93464.75;5050607;28;20075;-39
2022/05/02 05:06:23;;;;;;;13.90;9.07;;;;;;;10.38;62.84;93463.75;5050436;28;20053;-38
2022/05/02 05:08:49;;;;;;;10.63;9.05;;;;;;;10.66;62.76;93460.13;5050553;28;20017;-37
2022/05/02 05:11:26;;;;;;;6.97;6.10;;;;;;;10.82;62.90;93463.66;5050367;28;20403;-38
2022/05/02 05:17:20;;;;;;;;;;;;;;;11.76;60.80;93458.50;5045304;28;20525;-38
2022/05/02 05:20:03;;;;;;;39.97;22.55;;;;;;;12.07;60.20;93451.63;5050121;28;19912;-38
2022/05/02 05:22:50;;;;;;;32.90;17.52;;;;;;;12.39;59.52;93450.94;5050389;28;20029;-38
2022/05/02 05:25:37;;;;;;;21.02;12.82;;;;;;;13.01;58.44;93443.75;5049259;28;20025;-38
2022/05/02 05:28:47;;;;;;;34.58;11.82;;;;;;;13.62;57.53;93442.00;5050379;28;20046;-38
2022/05/02 05:31:32;;;;;;;36.47;10.85;;;;;;;14.46;55.00;93434.28;5029888;28;20461;-38
2022/05/02 05:34:26;;;;;;;21.38;6.47;;;;;;;15.68;51.86;93434.00;5030418;28;20052;-38
2022/05/02 05:36:57;;;;;;;6.68;3.45;;;;;;;16.29;46.44;93431.53;5030457;28;20026;-38
2022/05/02 05:39:35;;;;;;;4.82;3.40;;;;;;;16.48;45.81;93428.75;5029985;28;20030;-38
2022/05/02 05:42:22;;;;;;;5.53;3.35;;;;;;;16.62;46.06;93424.22;5069281;28;20521;-39
2022/05/02 05:44:59;;;;;;;3.58;2.83;;;;;;;16.09;46.77;93427.28;5049776;28;20519;-38
2022/05/02 05:47:31;;;;;;;4.38;3.08;;;;;;;15.47;48.54;93423.38;5049924;28;20444;-38
2022/05/02 05:50:22;;;;;;;3.72;3.30;;;;;;;15.08;48.94;93422.47;5050196;28;20020;-39
2022/05/02 05:53:12;;;;;;;4.93;3.30;;;;;;;14.81;49.71;93430.09;5049874;28;20427;-39
2022/05/02 05:55:50;;;;;;;3.95;2.90;;;;;;;14.57;50.24;93431.00;5050153;28;20029;-38
2022/05/02 05:58:26;;;;;;;5.38;3.17;;;;;;;14.48;52.10;93423.31;5049734;28;20516;-38
2022/05/02 06:01:07;;;;;;;3.90;3.35;;;;;;;14.32;51.85;93424.81;5049181;28;20048;-38
2022/05/02 06:03:34;;;;;;;5.68;3.53;;;;;;;14.41;51.24;93407.47;5048581;28;20069;-38
2022/05/02 06:06:00;;;;;;;4.88;3.33;;;;;;;15.02;49.49;93424.81;5047839;28;20029;-38
2022/05/02 06:08:27;;;;;;;4.60;3.00;;;;;;;15.69;48.05;93415.97;5048434;28;20021;-39
2022/05/02 06:10:56;;;;;;;3.35;3.00;;;;;;;16.18;46.17;93409.84;5049921;28;20032;-40
2022/05/02 06:13:21;;;;;;;;;;;;;;;17.03;44.08;93416.63;5054343;28;20506;-38
2022/05/02 06:18:35;;;;;;;6.40;3.75;;;;;;;16.36;46.98;93407.63;5053691;28;20474;-37
2022/05/02 06:21:06;;;;;;;4.22;3.63;;;;;;;16.97;42.98;93409.91;5051919;28;20031;-37
2022/05/02 06:23:36;;;;;;;6.78;3.50;;;;;;;17.20;43.62;93424.06;5052699;28;20537;-39
2022/05/02 06:26:02;;;;;;;3.42;3.13;;;;;;;17.47;41.92;93412.66;5049859;28;20075;-38
2022/05/02 06:28:37;;;;;;;4.80;3.28;;;;;;;17.77;42.07;93411.91;5051204;28;20057;-38
2022/05/02 06:31:03;;;;;;;7.75;3.05;;;;;;;18.92;39.59;93406.88;5051723;28;20024;-38
2022/05/02 06:33:29;;;;;;;4.28;3.50;;;;;;;19.12;39.69;93404.63;5050894;28;20033;-38
2022/05/02 06:36:10;;;;;;;3.58;3.28;;;;;;;19.80;38.25;93393.31;5051084;28;20051;-38
2022/05/02 06:38:50;;;;;;;7.35;3.67;;;;;;;21.07;36.54;93392.91;5050705;28;20768;-38
2022/05/02 06:41:18;;;;;;;3.95;3.53;;;;;;;22.25;34.67;93395.59;5047962;28;20037;-39
2022/05/02 06:44:09;;;;;;;3.92;3.63;;;;;;;22.68;31.76;93387.19;5050396;28;20053;-39
2022/05/02 06:46:43;;;;;;;4.30;3.53;;;;;;;22.56;31.48;93390.13;5048864;28;20029;-39
2022/05/02 06:49:12;;;;;;;4.63;3.20;;;;;;;21.47;32.38;93383.84;5047869;28;20059;-38
2022/05/02 06:51:38;;;;;;;;;;;;;;;20.59;33.05;93387.41;5051208;28;20068;-39
2022/05/02 06:54:16;;;;;;;4.53;4.07;;;;;;;19.47;34.57;93379.44;5051038;28;19934;-39
2022/05/02 06:56:54;;;;;;;3.50;3.20;;;;;;;18.77;36.79;93375.84;5049778;28;20051;-38
2022/05/02 06:59:26;;;;;;;4.80;3.75;;;;;;;18.11;37.79;93383.44;5036734;28;20025;-40
2022/05/02 07:01:58;;;;;;;5.63;3.83;;;;;;;17.66;38.70;93374.22;5048652;28;20029;-38
2022/05/02 07:04:36;;;;;;;5.07;3.65;;;;;;;17.65;40.58;93372.75;5049052;28;20024;-39
2022/05/02 07:07:20;;;;;;;6.72;3.90;;;;;;;18.12;40.87;93368.16;5049848;28;20460;-39
2022/05/02 07:10:04;;;;;;;6.05;3.50;;;;;;;18.18;39.10;93374.88;5052825;28;20036;-40
2022/05/02 07:12:32;;;;;;;4.95;3.35;;;;;;;18.38;40.51;93369.13;5052540;28;20103;-39
2022/05/02 07:15:00;;;;;;;2.92;2.47;;;;;;;18.53;38.18;93382.69;5052189;28;20631;-39
2022/05/02 07:17:44;;;;;;;5.72;3.10;;;;;;;18.63;38.42;93374.94;5052645;28;20107;-37
2022/05/02 07:20:16;;;;;;;4.65;3.22;;;;;;;19.00;37.58;93372.34;5052102;28;20033;-37
2022/05/02 07:22:54;;;;;;;4.18;2.92;;;;;;;19.20;37.47;93376.38;5052362;28;20059;-37
2022/05/02 07:25:20;;;;;;;4.35;2.53;;;;;;;19.78;36.17;93370.78;5051246;28;20024;-37
2022/05/02 07:27:54;;;;;;;3.03;2.65;;;;;;;20.34;34.80;93357.25;5051327;28;20584;-37
2022/05/02 07:30:21;;;;;;;2.42;2.22;;;;;;;21.19;32.94;93359.13;5048899;28;20059;-38
2022/05/02 07:32:47;;;;;;;3.13;2.50;;;;;;;21.51;31.94;93361.56;5052392;28;20021;-38
2022/05/02 07:35:14;;;;;;;3.22;2.05;;;;;;;21.23;31.99;93353.72;5052302;28;20048;-37
2022/05/02 07:37:42;;;;;;;9.77;2.72;;;;;;;21.24;33.00;93339.09;5052006;28;20024;-37
2022/05/02 07:40:12;;;;;;;3.65;2.05;;;;;;;21.42;31.58;93356.16;5051811;28;20032;-37
2022/05/02 07:42:38;;;;;;;3.08;2.58;;;;;;;21.01;33.45;93361.66;5051467;28;20063;-38
2022/05/02 07:45:07;;;;;;;2.92;2.10;;;;;;;20.85;32.03;93358.72;5050670;28;20032;-38
2022/05/02 07:47:33;;;;;;;;;;;;;;;21.16;32.87;93357.56;5052670;28;20426;-37
2022/05/02 07:49:58;;;;;;;1.85;1.70;;;;;;;21.61;31.88;93348.03;5050526;28;19957;-37
2022/05/02 07:52:26;;;;;;;5.70;2.60;;;;;;;22.32;31.49;93338.31;5051999;28;20017;-37
2022/05/02 07:54:52;;;;;;;2.45;1.88;;;;;;;22.45;31.35;93336.81;5050473;28;20036;-38
2022/05/02 07:57:20;;;;;;;4.47;2.20;;;;;;;21.13;32.51;93320.97;5051569;28;20031;-37
2022/05/02 07:59:48;;;;;;;4.10;2.13;;;;;;;21.96;30.94;93322.44;5051558;28;20064;-38
2022/05/02 08:02:16;;;;;;;3.60;2.25;;;;;;;21.73;31.13;93306.50;5050569;28;20419;-37
2022/05/02 08:04:44;;;;;;;2.55;2.08;;;;;;;22.20;31.40;93318.00;5051539;28;20063;-37
2022/05/02 08:07:14;;;;;;;3.03;2.15;;;;;;;22.40;30.79;93321.81;5031451;28;20022;-38
2022/05/02 08:10:02;;;;;;;2.83;2.10;;;;;;;22.61;31.72;93331.97;5042107;28;20047;-37
2022/05/02 08:12:39;;;;;;;2.28;2.08;;;;;;;21.41;32.19;93344.19;5051304;28;20021;-37
2022/05/02 08:15:08;;;;;;;2.38;1.95;;;;;;;22.06;30.84;93336.28;5051230;28;20025;-37
2022/05/02 08:17:47;;;;;;;3.00;2.00;;;;;;;21.56;32.13;93337.22;5050819;28;20033;-37
2022/05/02 08:20:49;;;;;;;3.23;2.30;;;;;;;21.60;30.79;93346.59;5046298;28;20025;-37
2022/05/02 08:29:40;;;;;;;6.45;2.55;;;;;;;19.90;35.04;93355.44;5051004;28;20057;-37
2022/05/02 08:32:41;;;;;;;3.05;2.50;;;;;;;18.65;36.29;93355.47;5050837;28;20025;-37
2022/05/02 08:35:14;;;;;;;5.13;3.33;;;;;;;17.58;39.40;93359.00;5050850;28;20025;-37
2022/05/02 08:37:58;;;;;;;2.97;2.22;;;;;;;17.30;40.45;93372.47;5051347;28;20104;-37
2022/05/02 08:40:23;;;;;;;2.80;2.00;;;;;;;17.37;38.72;93371.56;5050767;28;20041;-37
2022/05/02 08:43:07;;;;;;;4.75;2.72;;;;;;;17.28;40.30;93374.41;5049883;28;20037;-37
2022/05/02 08:46:13;;;;;;;3.42;2.40;;;;;;;16.78;41.49;93376.50;5050155;28;20489;-37
2022/05/02 08:49:32;;;;;;;3.53;2.55;;;;;;;16.63;41.72;93374.78;5046467;28;20037;-37
2022/05/02 08:52:13;;;;;;;4.32;2.85;;;;;;;16.56;40.61;93378.47;5050087;28;20490;-37
2022/05/02 08:54:59;;;;;;;8.07;2.88;;;;;;;16.02;42.09;93368.94;5049714;28;20041;-37
2022/05/02 08:57:53;;;;;;;4.47;2.83;;;;;;;16.12;42.27;93364.09;5049691;28;20059;-37
2022/05/02 09:00:27;;;;;;;3.30;3.00;;;;;;;16.40;42.24;93374.50;5049785;28;20565;-37
2022/05/02 09:02:59;;;;;;;3.25;2.83;;;;;;;16.29;42.71;93364.69;5050698;28;20029;-37
2022/05/02 09:05:27;;;;;;;4.18;3.28;;;;;;;15.98;43.62;93374.22;5050595;28;20025;-37
2022/05/02 09:08:28;;;;;;;7.18;3.83;;;;;;;15.37;44.87;93369.72;5049160;28;20033;-36
2022/05/02 09:11:31;;;;;;;4.22;3.28;;;;;;;15.27;45.48;93365.47;5049853;28;20108;-37
2022/05/02 09:14:27;;;;;;;7.35;2.97;;;;;;;15.34;45.24;93356.25;5049492;28;20059;-37
2022/05/02 09:17:06;;;;;;;3.10;2.80;;;;;;;15.26;45.32;93356.38;5049080;28;20037;-36
2022/05/02 09:19:43;;;;;;;3.47;3.17;;;;;;;15.31;45.51;93349.06;5048852;28;20036;-36
2022/05/02 09:22:18;;;;;;;4.35;3.50;;;;;;;15.63;44.96;93351.50;5048374;28;20027;-37
2022/05/02 09:25:01;;;;;;;4.05;2.72;;;;;;;15.98;43.61;93355.47;5048502;28;20510;-37
2022/05/02 09:27:29;;;;;;;3.22;2.20;;;;;;;16.17;41.58;93347.09;5048678;28;20025;-37
2022/05/02 09:30:19;;;;;;;2.83;2.60;;;;;;;16.18;42.14;93348.56;5050130;28;20056;-37
2022/05/02 09:32:48;;;;;;;4.90;2.92;;;;;;;16.33;42.04;93353.81;5050127;28;20031;-37
2022/05/02 09:35:20;;;;;;;4.72;2.70;;;;;;;16.38;41.71;93347.22;5050022;28;20025;-36
2022/05/02 09:37:56;;;;;;;5.07;3.10;;;;;;;16.03;42.28;93337.72;5048875;28;20502;-37
2022/05/02 09:40:36;;;;;;;5.03;3.15;;;;;;;16.18;44.33;93319.97;5049936;28;20052;-37
2022/05/02 09:49:36;;;;;;;5.45;2.88;;;;;;;16.87;40.09;93319.97;5038237;28;20544;-37
2022/05/02 09:52:04;;;;;;;7.93;3.10;;;;;;;16.59;42.03;93313.16;5054256;28;20033;-37
2022/05/02 09:58:04;;;;;;;4.85;3.10;;;;;;;16.22;42.45;93315.41;5053908;28;20090;-37
2022/05/02 10:01:11;;;;;;;3.53;2.97;;;;;;;15.87;42.79;93328.94;5052747;28;20037;-36
2022/05/02 10:03:40;;;;;;;2.75;2.53;;;;;;;15.67;43.61;93315.63;5050805;28;20113;-37
2022/05/02 10:06:18;;;;;;;3.15;2.85;;;;;;;16.07;43.24;93315.03;5053742;28;20083;-37
2022/05/02 10:08:56;;;;;;;5.32;2.72;;;;;;;16.80;41.42;93309.72;5053587;28;20075;-37
2022/05/02 10:11:41;;;;;;;5.55;2.55;;;;;;;17.37;40.62;93312.22;5052005;28;20028;-37
2022/05/02 10:14:25;;;;;;;3.78;3.00;;;;;;;18.09;39.72;93303.03;5052038;28;20048;-37
2022/05/02 10:16:57;;;;;;;5.40;2.70;;;;;;;18.57;37.96;93307.44;5052000;28;20029;-37
2022/05/02 10:19:56;;;;;;;2.58;2.38;;;;;;;18.41;37.00;93304.34;5052077;28;20107;-37
2022/05/02 10:22:28;;;;;;;3.10;2.80;;;;;;;17.94;38.72;93300.66;5052234;28;20036;-37
2022/05/02 10:24:59;;;;;;;4.65;2.53;;;;;;;17.62;39.35;93298.56;5033525;28;20414;-37
2022/05/02 10:27:52;;;;;;;2.83;2.63;;;;;;;17.56;39.53;93295.38;5051172;28;20035;-37
2022/05/02 10:30:18;;;;;;;2.95;2.42;;;;;;;17.35;40.78;93289.75;5053605;28;20029;-37
2022/05/02 10:32:50;;;;;;;6.80;2.55;;;;;;;17.98;40.55;93291.81;5053257;28;20029;-37
2022/05/02 10:35:17;;;;;;;3.63;2.35;;;;;;;18.75;38.00;93286.22;5052751;28;20108;-37
2022/05/02 10:37:54;;;;;;;3.40;2.25;;;;;;;18.37;37.44;93275.41;5052169;28;20567;-37
2022/05/02 10:40:28;;;;;;;6.03;2.53;;;;;;;18.06;38.95;93270.69;5052701;28;20112;-37
2022/05/02 10:42:57;;;;;;;5.18;2.50;;;;;;;17.79;38.90;93270.38;5052627;28;21169;-37
2022/05/02 10:45:26;;;;;;;3.63;2.38;;;;;;;17.18;39.26;93264.91;5053006;28;20028;-37
2022/05/02 10:47:56;;;;;;;2.95;2.65;;;;;;;17.17;39.24;93264.16;5052627;28;20043;-37
2022/05/02 10:50:27;;;;;;;7.00;2.38;;;;;;;17.85;39.31;93262.38;5041111;28;20555;-37
2022/05/02 10:53:18;;;;;;;2.50;2.15;;;;;;;18.23;36.97;93260.56;5053024;28;20419;-37
2022/05/02 10:55:59;;;;;;;2.53;2.20;;;;;;;17.92;37.54;93263.50;5051359;28;20029;-37
2022/05/02 10:58:26;;;;;;;5.90;2.38;;;;;;;18.05;37.09;93263.66;5052633;28;20033;-37
2022/05/02 11:01:27;;;;;;;4.10;2.00;;;;;;;17.98;37.10;93259.03;5085335;28;20118;-37
2022/05/02 11:04:15;;;;;;;3.17;2.05;;;;;;;18.07;38.71;93260.25;5051738;28;20555;-39
2022/05/02 11:06:51;;;;;;;2.33;2.13;;;;;;;17.73;36.00;93253.22;5051784;28;20029;-39
2022/05/02 11:09:40;;;;;;;2.85;1.98;;;;;;;17.50;38.49;93267.06;5051417;28;20036;-38
2022/05/02 11:12:07;;;;;;;3.65;2.00;;;;;;;17.58;36.15;93256.44;5052379;28;20119;-37
2022/05/02 11:14:51;;;;;;;2.47;2.08;;;;;;;17.36;35.50;93258.47;5048553;28;20056;-37
2022/05/02 11:17:29;;;;;;;2.58;2.15;;;;;;;17.24;37.33;93265.28;5049181;28;20040;-37
2022/05/02 11:23:27;;;;;;;3.75;2.30;;;;;;;16.50;37.76;93266.56;5049645;28;20540;-37
2022/05/02 11:25:59;;;;;;;2.60;1.98;;;;;;;16.24;38.64;93264.69;5045143;28;20044;-38
2022/05/02 11:28:30;;;;;;;2.92;1.98;;;;;;;16.02;38.04;93269.44;5052159;28;20025;-37
2022/05/02 11:31:26;;;;;;;3.47;2.17;;;;;;;15.91;39.57;93267.25;5052245;28;20058;-37
2022/05/02 11:34:03;;;;;;;2.15;1.92;;;;;;;15.64;40.20;93266.69;5052092;28;20732;-37
2022/05/02 11:36:33;;;;;;;2.15;1.85;;;;;;;15.27;41.22;93265.34;5051271;28;20529;-37
2022/05/02 11:39:08;;;;;;;2.85;1.95;;;;;;;15.33;41.09;93260.94;5051925;28;20021;-37
2022/05/02 11:41:35;;;;;;;3.13;2.50;;;;;;;15.51;41.98;93267.13;5051249;28;20091;-37
2022/05/02 11:44:12;;;;;;;5.40;2.13;;;;;;;15.63;41.31;93263.19;5048995;28;20044;-37
2022/05/02 11:47:08;;;;;;;3.92;2.47;;;;;;;15.89;40.37;93265.06;5051927;28;20025;-37
2022/05/02 11:49:53;;;;;;;6.30;2.20;;;;;;;15.92;39.82;93265.91;5050664;28;20496;-37
2022/05/02 11:52:31;;;;;;;3.25;3.00;;;;;;;16.12;39.78;93269.41;5039744;28;20518;-37
2022/05/02 11:54:58;;;;;;;5.80;2.40;;;;;;;16.26;39.95;93265.59;5049370;28;20032;-37
2022/05/02 11:57:55;;;;;;;2.50;2.13;;;;;;;16.49;38.35;93254.66;5051129;28;20070;-37
2022/05/02 12:00:20;;;;;;;3.55;1.75;;;;;;;16.62;36.67;93265.34;5041653;28;20041;-37
2022/05/02 12:02:56;;;;;;;5.88;2.20;;;;;;;16.23;36.52;93247.25;5050515;28;20094;-37
2022/05/02 12:05:23;;;;;;;3.75;2.00;;;;;;;16.13;36.86;93246.56;5051889;28;20156;-37
2022/05/02 12:07:56;;;;;;;8.07;2.50;;;;;;;15.97;38.14;93248.19;5050752;28;20047;-37
2022/05/02 12:10:35;;;;;;;5.38;2.30;;;;;;;16.21;38.24;93247.13;5051293;28;20072;-37
2022/05/02 12:13:01;;;;;;;2.67;2.15;;;;;;;16.36;38.67;93224.47;5051386;28;20090;-37
2022/05/02 12:15:27;;;;;;;2.50;2.30;;;;;;;16.50;38.07;93242.19;5050457;28;20043;-37
2022/05/02 12:17:57;;;;;;;2.83;2.20;;;;;;;16.40;37.80;93240.75;5081195;28;20040;-37
2022/05/02 12:20:24;;;;;;;1.85;1.70;;;;;;;16.24;37.40;93234.06;5048912;28;20088;-37
2022/05/02 12:23:17;;;;;;;2.15;1.80;;;;;;;16.06;37.47;93230.00;5049053;28;20032;-37
2022/05/02 12:25:56;;;;;;;3.95;1.80;;;;;;;15.90;38.27;93224.00;5047611;28;20037;-37